Salisbury, MO

9:02 PM CDT on July 22, 2017 (GMT -0500)
bales | | Change Station
Active Advisory: Severe Thunderstorm Watch

Elev 705 ft 39.42 °N, 92.81 °W | Updated 6 seconds ago

Partly Cloudy
Partly Cloudy
88.2 °F
Feels Like 109 °F
N
0.0
Wind Variable Wind from SW
Gusts 0.0 mph

Today
High -- | Low -- °F
--% Chance of Precip.
Yesterday
High -- | Low -- °F
Precip. -- in
Pressure 29.81 in
Visibility 10.0 miles
Clouds Scattered Clouds 5500 ft
Heat Index 109 °F
Dew Point 82 °F
Humidity 83%
Rainfall 0.00 in
Snow Depth Not available.
6:02 AM 8:32 PM
Waning Crescent, 0% visible
METAR KVER 230155Z AUTO 00000KT 10SM SCT055 32/24 A2981 RMK AO2 T03190244
Pressure 29.81 in
Visibility 10.0 miles
Clouds Scattered Clouds 5500 ft
Heat Index 109 °F
Dew Point 82 °F
Humidity 83%
Rainfall 0.00 in
Snow Depth Not available.
6:02 AM 8:32 PM
Waning Crescent, 0% visible
METAR KVER 230155Z AUTO 00000KT 10SM SCT055 32/24 A2981 RMK AO2 T03190244

Get Your Daily Forecast Email!

Thanks for signing up!

Be on the lookout for a verification email in your inbox.

You'll start receiving severe weather alerts in your inbox..

×

10-Day Weather Forecast

Almanac

Astronomy

Jul. 22, 2017 Rise Set
Actual Time
Civil Twilight
Nautical Twilight
Astronomical Twilight
Moon
Length of Visible Light
Length of Day
Tomorrow will be .
, % of the Moon is Illuminated

Today's Extremes

State Highs State Lows

Community

WunderPhotos

Category 6

Welcome to Category 6. This is the collective home for Weather Underground's featured writeups by Dr. Jeff Masters (right), Bob Henson (left), Chris Burt, and other regular contributors.

Nearby

Air Quality

  Air Quality AQ Index Pollutant
Not available.

Snow Depth

Station Depth Elevation

Earthquake Activity

City Distance Mag. Time & Date
Minimum magnitude displayed is 2.5.

Coastal Water Temperatures

Place Temperature

Stations

Nearby Weather Stations

Station Location Temp. Windchill Dew Point Humidity Wind Precip. Elev Updated Type
                   

Watches & Warnings

Severe Thunderstorm Watch
Issued: 8:43 PM CDT Jul. 22, 2017 – National Weather Service

Severe Thunderstorm Watch 433 remains in effect until 100 am CDT

MO
. Missouri counties included are

Adair Buchanan Caldwell
Carroll Chariton Clay
Clinton Daviess DeKalb
Grundy Howard Jackson
Lafayette Linn Livingston
Macon Platte Randolph
ray Saline Sullivan